sensor_id;sensor_type;location;lat;lon;timestamp;temperature;humidity
37956;DHT22;23776;51.592;7.180;2022-12-07T00:01:33;5.60;19.40
37956;DHT22;23776;51.592;7.180;2022-12-07T00:04:00;5.60;18.10
37956;DHT22;23776;51.592;7.180;2022-12-07T00:06:31;5.60;18.70
37956;DHT22;23776;51.592;7.180;2022-12-07T00:08:57;5.60;21.10
37956;DHT22;23776;51.592;7.180;2022-12-07T00:11:23;5.60;20.20
37956;DHT22;23776;51.592;7.180;2022-12-07T00:13:54;5.70;19.50
37956;DHT22;23776;51.592;7.180;2022-12-07T00:16:23;5.80;18.10
37956;DHT22;23776;51.592;7.180;2022-12-07T00:18:48;5.80;13.60
37956;DHT22;23776;51.592;7.180;2022-12-07T00:21:16;5.80;14.20
37956;DHT22;23776;51.592;7.180;2022-12-07T00:23:45;5.80;15.10
37956;DHT22;23776;51.592;7.180;2022-12-07T00:26:34;5.80;14.20
37956;DHT22;23776;51.592;7.180;2022-12-07T00:29:04;5.80;15.00
37956;DHT22;23776;51.592;7.180;2022-12-07T00:31:33;5.80;16.60
37956;DHT22;23776;51.592;7.180;2022-12-07T00:34:00;5.80;13.10
37956;DHT22;23776;51.592;7.180;2022-12-07T00:36:26;5.90;14.70
37956;DHT22;23776;51.592;7.180;2022-12-07T00:38:52;5.80;10.90
37956;DHT22;23776;51.592;7.180;2022-12-07T00:41:20;5.80;12.20
37956;DHT22;23776;51.592;7.180;2022-12-07T00:43:47;5.80;13.70
37956;DHT22;23776;51.592;7.180;2022-12-07T00:46:13;5.90;13.80
37956;DHT22;23776;51.592;7.180;2022-12-07T00:48:39;5.90;13.80
37956;DHT22;23776;51.592;7.180;2022-12-07T00:51:06;5.90;10.20
37956;DHT22;23776;51.592;7.180;2022-12-07T00:53:34;5.90;10.60
37956;DHT22;23776;51.592;7.180;2022-12-07T00:56:12;5.90;5.70
37956;DHT22;23776;51.592;7.180;2022-12-07T00:58:38;5.70;14.50
37956;DHT22;23776;51.592;7.180;2022-12-07T01:01:05;5.70;14.80
37956;DHT22;23776;51.592;7.180;2022-12-07T01:03:31;5.60;15.80
37956;DHT22;23776;51.592;7.180;2022-12-07T01:05:57;5.50;19.00
37956;DHT22;23776;51.592;7.180;2022-12-07T01:08:25;5.50;19.60
37956;DHT22;23776;51.592;7.180;2022-12-07T01:11:05;5.50;20.10
37956;DHT22;23776;51.592;7.180;2022-12-07T01:13:32;5.60;18.60
37956;DHT22;23776;51.592;7.180;2022-12-07T01:15:59;5.50;14.90
37956;DHT22;23776;51.592;7.180;2022-12-07T01:18:27;5.40;18.30
37956;DHT22;23776;51.592;7.180;2022-12-07T01:21:04;5.40;21.00
37956;DHT22;23776;51.592;7.180;2022-12-07T01:23:30;5.40;18.90
37956;DHT22;23776;51.592;7.180;2022-12-07T01:25:58;5.40;20.60
37956;DHT22;23776;51.592;7.180;2022-12-07T01:28:24;5.40;22.00
37956;DHT22;23776;51.592;7.180;2022-12-07T01:31:17;5.40;21.10
37956;DHT22;23776;51.592;7.180;2022-12-07T01:33:46;5.50;20.30
37956;DHT22;23776;51.592;7.180;2022-12-07T01:36:27;5.50;18.50
37956;DHT22;23776;51.592;7.180;2022-12-07T01:38:56;5.40;21.10
37956;DHT22;23776;51.592;7.180;2022-12-07T01:41:24;5.30;21.40
37956;DHT22;23776;51.592;7.180;2022-12-07T01:46:35;5.40;18.50
37956;DHT22;23776;51.592;7.180;2022-12-07T01:49:01;5.40;18.70
37956;DHT22;23776;51.592;7.180;2022-12-07T01:51:28;5.40;19.10
37956;DHT22;23776;51.592;7.180;2022-12-07T01:53:54;5.50;17.10
37956;DHT22;23776;51.592;7.180;2022-12-07T01:56:23;5.40;19.30
37956;DHT22;23776;51.592;7.180;2022-12-07T01:58:51;5.40;17.10
37956;DHT22;23776;51.592;7.180;2022-12-07T02:01:17;5.40;19.00
37956;DHT22;23776;51.592;7.180;2022-12-07T02:03:44;5.40;21.30
37956;DHT22;23776;51.592;7.180;2022-12-07T02:06:13;5.50;18.40
37956;DHT22;23776;51.592;7.180;2022-12-07T02:08:41;5.50;16.60
37956;DHT22;23776;51.592;7.180;2022-12-07T02:11:08;5.40;17.80
37956;DHT22;23776;51.592;7.180;2022-12-07T02:13:36;5.30;18.60
37956;DHT22;23776;51.592;7.180;2022-12-07T02:16:18;5.30;17.50
37956;DHT22;23776;51.592;7.180;2022-12-07T02:24:24;5.20;18.90
37956;DHT22;23776;51.592;7.180;2022-12-07T02:30:06;5.20;18.10
37956;DHT22;23776;51.592;7.180;2022-12-07T02:45:45;4.90;19.90
37956;DHT22;23776;51.592;7.180;2022-12-07T02:48:14;4.80;20.20
37956;DHT22;23776;51.592;7.180;2022-12-07T02:50:47;4.80;21.10
37956;DHT22;23776;51.592;7.180;2022-12-07T02:53:33;4.70;21.30
37956;DHT22;23776;51.592;7.180;2022-12-07T02:56:05;4.60;22.00
37956;DHT22;23776;51.592;7.180;2022-12-07T03:10:42;4.40;19.60
37956;DHT22;23776;51.592;7.180;2022-12-07T03:13:31;4.40;21.30
37956;DHT22;23776;51.592;7.180;2022-12-07T03:16:15;4.30;21.40
37956;DHT22;23776;51.592;7.180;2022-12-07T03:18:52;4.30;20.50
37956;DHT22;23776;51.592;7.180;2022-12-07T03:21:32;4.30;20.90
37956;DHT22;23776;51.592;7.180;2022-12-07T03:24:00;4.20;20.50
37956;DHT22;23776;51.592;7.180;2022-12-07T03:26:32;4.10;20.60
37956;DHT22;23776;51.592;7.180;2022-12-07T03:29:05;4.00;20.90
37956;DHT22;23776;51.592;7.180;2022-12-07T03:31:37;4.00;21.20
37956;DHT22;23776;51.592;7.180;2022-12-07T03:34:12;4.00;22.00
37956;DHT22;23776;51.592;7.180;2022-12-07T03:36:52;4.00;21.70
37956;DHT22;23776;51.592;7.180;2022-12-07T03:39:28;4.00;22.30
37956;DHT22;23776;51.592;7.180;2022-12-07T03:41:56;4.00;21.80
37956;DHT22;23776;51.592;7.180;2022-12-07T03:44:22;3.90;22.80
37956;DHT22;23776;51.592;7.180;2022-12-07T03:49:53;3.80;22.30
37956;DHT22;23776;51.592;7.180;2022-12-07T03:55:11;3.80;22.30
37956;DHT22;23776;51.592;7.180;2022-12-07T03:57:39;3.80;21.80
37956;DHT22;23776;51.592;7.180;2022-12-07T04:00:07;3.70;22.10
37956;DHT22;23776;51.592;7.180;2022-12-07T04:02:33;3.80;23.10
37956;DHT22;23776;51.592;7.180;2022-12-07T04:04:59;3.80;23.80
37956;DHT22;23776;51.592;7.180;2022-12-07T04:07:25;3.90;23.60
37956;DHT22;23776;51.592;7.180;2022-12-07T04:09:51;3.90;23.00
37956;DHT22;23776;51.592;7.180;2022-12-07T04:12:16;3.90;24.50
37956;DHT22;23776;51.592;7.180;2022-12-07T04:14:42;3.80;25.40
37956;DHT22;23776;51.592;7.180;2022-12-07T04:17:08;3.90;25.90
37956;DHT22;23776;51.592;7.180;2022-12-07T04:19:34;3.90;25.50
37956;DHT22;23776;51.592;7.180;2022-12-07T04:22:01;3.90;25.50
37956;DHT22;23776;51.592;7.180;2022-12-07T04:24:27;3.90;25.20
37956;DHT22;23776;51.592;7.180;2022-12-07T04:26:53;3.90;25.90
37956;DHT22;23776;51.592;7.180;2022-12-07T04:29:19;4.00;25.20
37956;DHT22;23776;51.592;7.180;2022-12-07T04:31:45;4.00;25.80
37956;DHT22;23776;51.592;7.180;2022-12-07T04:34:12;4.10;24.60
37956;DHT22;23776;51.592;7.180;2022-12-07T04:36:38;4.10;23.90
37956;DHT22;23776;51.592;7.180;2022-12-07T04:39:05;4.10;24.30
37956;DHT22;23776;51.592;7.180;2022-12-07T04:41:31;4.10;24.80
37956;DHT22;23776;51.592;7.180;2022-12-07T04:44:02;4.10;25.00
37956;DHT22;23776;51.592;7.180;2022-12-07T04:46:30;6.30;25.40
37956;DHT22;23776;51.592;7.180;2022-12-07T04:48:56;4.20;23.60
37956;DHT22;23776;51.592;7.180;2022-12-07T04:51:24;4.20;22.20
37956;DHT22;23776;51.592;7.180;2022-12-07T04:53:50;4.20;22.90
37956;DHT22;23776;51.592;7.180;2022-12-07T04:56:17;4.30;23.50
37956;DHT22;23776;51.592;7.180;2022-12-07T04:58:44;4.30;22.00
37956;DHT22;23776;51.592;7.180;2022-12-07T05:01:10;4.30;21.70
37956;DHT22;23776;51.592;7.180;2022-12-07T05:03:36;4.30;22.10
37956;DHT22;23776;51.592;7.180;2022-12-07T05:06:02;4.20;22.60
37956;DHT22;23776;51.592;7.180;2022-12-07T05:08:28;4.30;21.70
37956;DHT22;23776;51.592;7.180;2022-12-07T05:10:54;4.20;22.60
37956;DHT22;23776;51.592;7.180;2022-12-07T05:13:19;4.20;23.00
37956;DHT22;23776;51.592;7.180;2022-12-07T05:15:47;4.20;21.30
37956;DHT22;23776;51.592;7.180;2022-12-07T05:18:13;4.20;20.60
37956;DHT22;23776;51.592;7.180;2022-12-07T05:20:39;4.20;21.90
37956;DHT22;23776;51.592;7.180;2022-12-07T05:23:05;4.20;22.40
37956;DHT22;23776;51.592;7.180;2022-12-07T05:25:30;4.20;22.30
37956;DHT22;23776;51.592;7.180;2022-12-07T05:27:56;4.30;21.90
37956;DHT22;23776;51.592;7.180;2022-12-07T05:30:23;4.30;21.10
37956;DHT22;23776;51.592;7.180;2022-12-07T05:32:49;4.40;21.00
37956;DHT22;23776;51.592;7.180;2022-12-07T05:35:15;4.40;20.20
37956;DHT22;23776;51.592;7.180;2022-12-07T05:37:41;4.40;19.00
37956;DHT22;23776;51.592;7.180;2022-12-07T05:40:08;4.40;18.70
37956;DHT22;23776;51.592;7.180;2022-12-07T05:42:34;4.40;18.20
37956;DHT22;23776;51.592;7.180;2022-12-07T05:44:59;4.40;18.00
37956;DHT22;23776;51.592;7.180;2022-12-07T05:47:25;4.40;17.90
37956;DHT22;23776;51.592;7.180;2022-12-07T05:49:50;4.40;17.20
37956;DHT22;23776;51.592;7.180;2022-12-07T05:52:16;4.40;18.10
37956;DHT22;23776;51.592;7.180;2022-12-07T05:54:42;4.40;18.00
37956;DHT22;23776;51.592;7.180;2022-12-07T05:57:07;4.40;16.80
37956;DHT22;23776;51.592;7.180;2022-12-07T05:59:33;4.30;17.90
37956;DHT22;23776;51.592;7.180;2022-12-07T06:02:04;4.30;18.00
37956;DHT22;23776;51.592;7.180;2022-12-07T06:04:33;4.30;17.90
37956;DHT22;23776;51.592;7.180;2022-12-07T06:06:59;4.30;18.30
37956;DHT22;23776;51.592;7.180;2022-12-07T06:09:26;4.30;17.50
37956;DHT22;23776;51.592;7.180;2022-12-07T06:11:52;4.40;15.80
37956;DHT22;23776;51.592;7.180;2022-12-07T06:14:37;4.30;14.90
37956;DHT22;23776;51.592;7.180;2022-12-07T06:17:02;4.30;15.70
37956;DHT22;23776;51.592;7.180;2022-12-07T06:19:28;4.30;14.80
37956;DHT22;23776;51.592;7.180;2022-12-07T06:21:54;4.20;14.00
37956;DHT22;23776;51.592;7.180;2022-12-07T06:24:19;4.20;16.00
37956;DHT22;23776;51.592;7.180;2022-12-07T06:26:45;4.20;17.20
37956;DHT22;23776;51.592;7.180;2022-12-07T06:29:11;4.20;17.40
37956;DHT22;23776;51.592;7.180;2022-12-07T06:31:37;4.20;18.00
37956;DHT22;23776;51.592;7.180;2022-12-07T06:34:06;4.20;18.10
37956;DHT22;23776;51.592;7.180;2022-12-07T06:36:32;4.10;18.10
37956;DHT22;23776;51.592;7.180;2022-12-07T06:38:58;4.10;19.60
37956;DHT22;23776;51.592;7.180;2022-12-07T06:41:24;4.10;19.10
37956;DHT22;23776;51.592;7.180;2022-12-07T06:43:49;4.00;18.20
37956;DHT22;23776;51.592;7.180;2022-12-07T06:46:16;3.90;18.40
37956;DHT22;23776;51.592;7.180;2022-12-07T06:48:42;3.90;19.00
37956;DHT22;23776;51.592;7.180;2022-12-07T06:51:08;3.90;17.70
37956;DHT22;23776;51.592;7.180;2022-12-07T06:53:34;3.80;18.30
37956;DHT22;23776;51.592;7.180;2022-12-07T06:56:00;3.80;18.80
37956;DHT22;23776;51.592;7.180;2022-12-07T06:58:26;3.80;19.60
37956;DHT22;23776;51.592;7.180;2022-12-07T07:00:51;3.70;19.60
37956;DHT22;23776;51.592;7.180;2022-12-07T07:03:17;3.70;19.20
37956;DHT22;23776;51.592;7.180;2022-12-07T07:05:43;3.70;18.50
37956;DHT22;23776;51.592;7.180;2022-12-07T07:08:10;3.70;19.10
37956;DHT22;23776;51.592;7.180;2022-12-07T07:10:36;3.60;18.80
37956;DHT22;23776;51.592;7.180;2022-12-07T07:13:02;3.60;19.10
37956;DHT22;23776;51.592;7.180;2022-12-07T07:15:27;3.20;19.20
37956;DHT22;23776;51.592;7.180;2022-12-07T07:17:53;3.70;20.20
37956;DHT22;23776;51.592;7.180;2022-12-07T07:20:19;3.60;19.60
37956;DHT22;23776;51.592;7.180;2022-12-07T07:22:45;3.70;19.50
37956;DHT22;23776;51.592;7.180;2022-12-07T07:25:10;3.70;19.10
37956;DHT22;23776;51.592;7.180;2022-12-07T07:27:36;3.70;18.90
37956;DHT22;23776;51.592;7.180;2022-12-07T07:30:02;3.60;17.90
37956;DHT22;23776;51.592;7.180;2022-12-07T07:32:28;3.60;16.80
37956;DHT22;23776;51.592;7.180;2022-12-07T07:34:53;3.50;18.60
37956;DHT22;23776;51.592;7.180;2022-12-07T07:37:19;3.40;18.80
37956;DHT22;23776;51.592;7.180;2022-12-07T07:39:45;3.30;19.00
37956;DHT22;23776;51.592;7.180;2022-12-07T07:42:10;3.30;19.00
37956;DHT22;23776;51.592;7.180;2022-12-07T07:44:36;3.30;19.30
37956;DHT22;23776;51.592;7.180;2022-12-07T07:47:02;3.30;20.80
37956;DHT22;23776;51.592;7.180;2022-12-07T07:49:28;3.40;21.00
37956;DHT22;23776;51.592;7.180;2022-12-07T07:51:53;3.40;20.30
37956;DHT22;23776;51.592;7.180;2022-12-07T07:54:19;3.30;20.90
37956;DHT22;23776;51.592;7.180;2022-12-07T07:56:45;3.20;21.20
37956;DHT22;23776;51.592;7.180;2022-12-07T07:59:10;3.30;21.70
37956;DHT22;23776;51.592;7.180;2022-12-07T08:01:36;3.30;21.10
37956;DHT22;23776;51.592;7.180;2022-12-07T08:04:01;3.20;20.80
37956;DHT22;23776;51.592;7.180;2022-12-07T08:06:27;3.20;21.10
37956;DHT22;23776;51.592;7.180;2022-12-07T08:08:53;3.20;21.70
37956;DHT22;23776;51.592;7.180;2022-12-07T08:11:18;3.30;22.50
37956;DHT22;23776;51.592;7.180;2022-12-07T08:13:47;3.40;22.50
37956;DHT22;23776;51.592;7.180;2022-12-07T08:16:13;3.50;21.90
37956;DHT22;23776;51.592;7.180;2022-12-07T08:18:40;3.60;22.30
37956;DHT22;23776;51.592;7.180;2022-12-07T08:21:08;3.70;22.00
37956;DHT22;23776;51.592;7.180;2022-12-07T08:23:34;3.80;22.90
37956;DHT22;23776;51.592;7.180;2022-12-07T08:26:08;3.90;23.30
37956;DHT22;23776;51.592;7.180;2022-12-07T08:28:35;4.00;22.40
37956;DHT22;23776;51.592;7.180;2022-12-07T08:31:02;4.10;21.00
37956;DHT22;23776;51.592;7.180;2022-12-07T08:33:28;4.20;20.00
37956;DHT22;23776;51.592;7.180;2022-12-07T08:35:54;4.30;19.60
37956;DHT22;23776;51.592;7.180;2022-12-07T08:38:20;4.30;19.30
37956;DHT22;23776;51.592;7.180;2022-12-07T08:40:56;4.40;19.50
37956;DHT22;23776;51.592;7.180;2022-12-07T08:43:22;4.40;18.80
37956;DHT22;23776;51.592;7.180;2022-12-07T08:48:39;4.50;17.50
37956;DHT22;23776;51.592;7.180;2022-12-07T08:51:05;4.50;16.00
37956;DHT22;23776;51.592;7.180;2022-12-07T08:53:31;4.50;15.70
37956;DHT22;23776;51.592;7.180;2022-12-07T08:55:58;4.60;15.70
37956;DHT22;23776;51.592;7.180;2022-12-07T08:58:24;4.70;13.90
37956;DHT22;23776;51.592;7.180;2022-12-07T09:00:49;4.80;13.20
37956;DHT22;23776;51.592;7.180;2022-12-07T09:03:16;4.80;11.20
37956;DHT22;23776;51.592;7.180;2022-12-07T09:05:41;4.80;12.90
37956;DHT22;23776;51.592;7.180;2022-12-07T09:08:08;4.90;13.10
37956;DHT22;23776;51.592;7.180;2022-12-07T09:10:33;5.00;13.40
37956;DHT22;23776;51.592;7.180;2022-12-07T09:12:59;5.00;9.90
37956;DHT22;23776;51.592;7.180;2022-12-07T09:15:28;5.10;12.20
37956;DHT22;23776;51.592;7.180;2022-12-07T09:17:54;5.20;8.10
37956;DHT22;23776;51.592;7.180;2022-12-07T09:20:20;5.20;1.00
37956;DHT22;23776;51.592;7.180;2022-12-07T09:22:45;5.30;2.90
37956;DHT22;23776;51.592;7.180;2022-12-07T09:25:11;5.40;1.40
37956;DHT22;23776;51.592;7.180;2022-12-07T09:27:37;5.30;1.00
37956;DHT22;23776;51.592;7.180;2022-12-07T09:30:03;5.40;1.00
37956;DHT22;23776;51.592;7.180;2022-12-07T09:32:29;5.40;1.00
37956;DHT22;23776;51.592;7.180;2022-12-07T09:34:55;5.40;1.00
37956;DHT22;23776;51.592;7.180;2022-12-07T09:37:20;5.40;1.00
37956;DHT22;23776;51.592;7.180;2022-12-07T09:39:46;5.40;1.00
37956;DHT22;23776;51.592;7.180;2022-12-07T09:42:26;5.40;1.00
37956;DHT22;23776;51.592;7.180;2022-12-07T09:44:52;5.30;1.00
37956;DHT22;23776;51.592;7.180;2022-12-07T09:47:18;5.40;1.00
37956;DHT22;23776;51.592;7.180;2022-12-07T09:49:44;5.50;1.00
37956;DHT22;23776;51.592;7.180;2022-12-07T09:54:42;5.60;1.00
37956;DHT22;23776;51.592;7.180;2022-12-07T09:57:11;5.70;1.00
37956;DHT22;23776;51.592;7.180;2022-12-07T09:59:37;6.10;1.00
37956;DHT22;23776;51.592;7.180;2022-12-07T10:04:52;5.60;1.00
37956;DHT22;23776;51.592;7.180;2022-12-07T10:07:18;5.60;1.00
37956;DHT22;23776;51.592;7.180;2022-12-07T10:09:44;5.70;1.00
37956;DHT22;23776;51.592;7.180;2022-12-07T10:12:11;5.70;1.00
37956;DHT22;23776;51.592;7.180;2022-12-07T10:14:39;5.80;1.00
37956;DHT22;23776;51.592;7.180;2022-12-07T10:17:38;5.80;1.00
37956;DHT22;23776;51.592;7.180;2022-12-07T10:22:37;6.00;1.00
37956;DHT22;23776;51.592;7.180;2022-12-07T10:25:18;6.10;1.00
37956;DHT22;23776;51.592;7.180;2022-12-07T10:28:00;6.10;1.00
37956;DHT22;23776;51.592;7.180;2022-12-07T10:30:27;6.10;1.00
37956;DHT22;23776;51.592;7.180;2022-12-07T10:32:52;6.20;1.00
37956;DHT22;23776;51.592;7.180;2022-12-07T10:35:22;6.20;1.00
37956;DHT22;23776;51.592;7.180;2022-12-07T10:37:49;6.30;1.00
37956;DHT22;23776;51.592;7.180;2022-12-07T10:40:36;6.50;1.00
37956;DHT22;23776;51.592;7.180;2022-12-07T10:43:04;6.30;1.00
37956;DHT22;23776;51.592;7.180;2022-12-07T10:45:30;6.40;1.00
37956;DHT22;23776;51.592;7.180;2022-12-07T10:48:00;6.50;1.00
37956;DHT22;23776;51.592;7.180;2022-12-07T10:53:28;6.40;1.00
37956;DHT22;23776;51.592;7.180;2022-12-07T10:59:21;6.70;1.00
37956;DHT22;23776;51.592;7.180;2022-12-07T11:02:42;6.70;1.00
37956;DHT22;23776;51.592;7.180;2022-12-07T11:04:55;6.80;1.00
37956;DHT22;23776;51.592;7.180;2022-12-07T11:15:29;7.10;99.90
37956;DHT22;23776;51.592;7.180;2022-12-07T11:18:22;7.20;99.90
37956;DHT22;23776;51.592;7.180;2022-12-07T11:21:12;7.20;99.90
37956;DHT22;23776;51.592;7.180;2022-12-07T11:24:11;7.00;99.90
37956;DHT22;23776;51.592;7.180;2022-12-07T11:27:09;6.60;99.90
37956;DHT22;23776;51.592;7.180;2022-12-07T11:29:50;6.70;1.00
37956;DHT22;23776;51.592;7.180;2022-12-07T11:32:39;6.50;99.90
37956;DHT22;23776;51.592;7.180;2022-12-07T11:35:35;6.60;1.00
37956;DHT22;23776;51.592;7.180;2022-12-07T11:38:10;6.70;1.00
37956;DHT22;23776;51.592;7.180;2022-12-07T11:40:37;6.90;99.90
37956;DHT22;23776;51.592;7.180;2022-12-07T11:43:31;6.90;1.00
37956;DHT22;23776;51.592;7.180;2022-12-07T11:46:08;6.90;99.90
37956;DHT22;23776;51.592;7.180;2022-12-07T11:51:13;7.00;99.90
37956;DHT22;23776;51.592;7.180;2022-12-07T11:56:15;7.00;99.90
37956;DHT22;23776;51.592;7.180;2022-12-07T12:03:50;6.70;99.90
37956;DHT22;23776;51.592;7.180;2022-12-07T12:06:16;6.80;99.90
37956;DHT22;23776;51.592;7.180;2022-12-07T12:11:47;6.80;99.90
37956;DHT22;23776;51.592;7.180;2022-12-07T12:22:36;7.10;99.90
37956;DHT22;23776;51.592;7.180;2022-12-07T12:25:03;6.90;99.90
37956;DHT22;23776;51.592;7.180;2022-12-07T12:27:33;7.00;99.90
37956;DHT22;23776;51.592;7.180;2022-12-07T12:30:02;7.10;99.90
37956;DHT22;23776;51.592;7.180;2022-12-07T12:32:39;7.20;99.90
37956;DHT22;23776;51.592;7.180;2022-12-07T12:37:53;7.10;99.90
37956;DHT22;23776;51.592;7.180;2022-12-07T12:42:56;7.20;99.90
37956;DHT22;23776;51.592;7.180;2022-12-07T12:45:30;7.20;99.90
37956;DHT22;23776;51.592;7.180;2022-12-07T12:50:29;7.30;94.50
37956;DHT22;23776;51.592;7.180;2022-12-07T12:58:29;7.10;1.00
37956;DHT22;23776;51.592;7.180;2022-12-07T13:03:56;7.00;64.70
37956;DHT22;23776;51.592;7.180;2022-12-07T13:08:57;6.80;99.90
37956;DHT22;23776;51.592;7.180;2022-12-07T13:11:34;6.70;99.90
37956;DHT22;23776;51.592;7.180;2022-12-07T13:17:08;6.60;99.90
37956;DHT22;23776;51.592;7.180;2022-12-07T13:27:29;6.40;99.90
37956;DHT22;23776;51.592;7.180;2022-12-07T13:29:56;6.40;99.90
37956;DHT22;23776;51.592;7.180;2022-12-07T13:32:27;6.40;99.90
37956;DHT22;23776;51.592;7.180;2022-12-07T13:34:53;6.30;1.00
37956;DHT22;23776;51.592;7.180;2022-12-07T13:37:28;6.30;1.00
37956;DHT22;23776;51.592;7.180;2022-12-07T13:39:59;6.30;1.00
37956;DHT22;23776;51.592;7.180;2022-12-07T13:42:27;6.50;1.00
37956;DHT22;23776;51.592;7.180;2022-12-07T13:44:52;6.50;99.90
37956;DHT22;23776;51.592;7.180;2022-12-07T13:47:47;6.50;99.90
37956;DHT22;23776;51.592;7.180;2022-12-07T13:50:31;6.40;99.90
37956;DHT22;23776;51.592;7.180;2022-12-07T13:53:00;6.30;99.90
37956;DHT22;23776;51.592;7.180;2022-12-07T13:55:27;6.20;99.90
37956;DHT22;23776;51.592;7.180;2022-12-07T13:57:54;6.20;99.90
37956;DHT22;23776;51.592;7.180;2022-12-07T14:00:23;6.20;1.00
37956;DHT22;23776;51.592;7.180;2022-12-07T14:03:00;6.20;1.00
37956;DHT22;23776;51.592;7.180;2022-12-07T14:05:32;6.20;1.00
37956;DHT22;23776;51.592;7.180;2022-12-07T14:08:03;6.10;99.90
37956;DHT22;23776;51.592;7.180;2022-12-07T14:12:57;6.00;1.00
37956;DHT22;23776;51.592;7.180;2022-12-07T14:15:27;6.00;1.00
37956;DHT22;23776;51.592;7.180;2022-12-07T14:17:54;6.00;1.00
37956;DHT22;23776;51.592;7.180;2022-12-07T14:20:37;6.20;1.00
37956;DHT22;23776;51.592;7.180;2022-12-07T14:23:04;6.30;99.90
37956;DHT22;23776;51.592;7.180;2022-12-07T14:26:11;6.20;99.90
37956;DHT22;23776;51.592;7.180;2022-12-07T14:28:37;6.20;1.00
37956;DHT22;23776;51.592;7.180;2022-12-07T14:31:07;6.10;1.00
37956;DHT22;23776;51.592;7.180;2022-12-07T14:33:34;6.20;1.00
37956;DHT22;23776;51.592;7.180;2022-12-07T14:35:59;6.20;1.00
37956;DHT22;23776;51.592;7.180;2022-12-07T14:38:25;6.10;1.00
37956;DHT22;23776;51.592;7.180;2022-12-07T14:40:52;6.00;1.00
37956;DHT22;23776;51.592;7.180;2022-12-07T14:43:19;6.00;1.00
37956;DHT22;23776;51.592;7.180;2022-12-07T14:45:45;5.90;1.00
37956;DHT22;23776;51.592;7.180;2022-12-07T14:48:14;5.90;1.00
37956;DHT22;23776;51.592;7.180;2022-12-07T14:50:45;5.80;1.00
37956;DHT22;23776;51.592;7.180;2022-12-07T14:53:16;5.80;1.00
37956;DHT22;23776;51.592;7.180;2022-12-07T14:55:42;5.70;1.00
37956;DHT22;23776;51.592;7.180;2022-12-07T14:58:13;5.60;1.00
37956;DHT22;23776;51.592;7.180;2022-12-07T15:00:39;5.50;1.00
37956;DHT22;23776;51.592;7.180;2022-12-07T15:03:05;5.50;1.00
37956;DHT22;23776;51.592;7.180;2022-12-07T15:05:30;5.50;1.00
37956;DHT22;23776;51.592;7.180;2022-12-07T15:07:56;5.40;1.00
37956;DHT22;23776;51.592;7.180;2022-12-07T15:10:28;5.30;1.00
37956;DHT22;23776;51.592;7.180;2022-12-07T15:12:59;5.20;1.00
37956;DHT22;23776;51.592;7.180;2022-12-07T15:15:45;5.20;1.00
37956;DHT22;23776;51.592;7.180;2022-12-07T15:18:10;5.30;1.00
37956;DHT22;23776;51.592;7.180;2022-12-07T15:20:36;5.20;1.00
37956;DHT22;23776;51.592;7.180;2022-12-07T15:23:01;5.20;1.00
37956;DHT22;23776;51.592;7.180;2022-12-07T15:25:27;5.20;1.00
37956;DHT22;23776;51.592;7.180;2022-12-07T15:27:52;5.10;1.00
37956;DHT22;23776;51.592;7.180;2022-12-07T15:30:18;5.10;1.00
37956;DHT22;23776;51.592;7.180;2022-12-07T15:32:43;5.10;1.00
37956;DHT22;23776;51.592;7.180;2022-12-07T15:35:09;5.10;1.00
37956;DHT22;23776;51.592;7.180;2022-12-07T15:37:35;5.10;1.00
37956;DHT22;23776;51.592;7.180;2022-12-07T15:40:00;5.10;1.00
37956;DHT22;23776;51.592;7.180;2022-12-07T15:42:26;5.10;1.00
37956;DHT22;23776;51.592;7.180;2022-12-07T15:44:51;5.10;1.00
37956;DHT22;23776;51.592;7.180;2022-12-07T15:50:03;5.90;1.00
37956;DHT22;23776;51.592;7.180;2022-12-07T15:52:30;5.10;1.00
37956;DHT22;23776;51.592;7.180;2022-12-07T15:54:56;5.10;1.00
37956;DHT22;23776;51.592;7.180;2022-12-07T15:57:22;5.10;1.00
37956;DHT22;23776;51.592;7.180;2022-12-07T15:59:47;5.00;1.00
37956;DHT22;23776;51.592;7.180;2022-12-07T16:02:13;5.00;1.00
37956;DHT22;23776;51.592;7.180;2022-12-07T16:04:39;5.10;1.00
37956;DHT22;23776;51.592;7.180;2022-12-07T16:07:05;5.00;1.00
37956;DHT22;23776;51.592;7.180;2022-12-07T16:09:31;5.00;1.00
37956;DHT22;23776;51.592;7.180;2022-12-07T16:11:57;5.10;1.00
37956;DHT22;23776;51.592;7.180;2022-12-07T16:14:22;5.10;1.00
37956;DHT22;23776;51.592;7.180;2022-12-07T16:16:48;5.10;1.00
37956;DHT22;23776;51.592;7.180;2022-12-07T16:19:14;5.20;1.00
37956;DHT22;23776;51.592;7.180;2022-12-07T16:21:40;5.10;1.00
37956;DHT22;23776;51.592;7.180;2022-12-07T16:24:06;5.10;1.00
37956;DHT22;23776;51.592;7.180;2022-12-07T16:26:32;5.10;1.00
37956;DHT22;23776;51.592;7.180;2022-12-07T16:28:58;5.10;1.00
37956;DHT22;23776;51.592;7.180;2022-12-07T16:31:25;5.10;1.00
37956;DHT22;23776;51.592;7.180;2022-12-07T16:33:56;5.20;1.00
37956;DHT22;23776;51.592;7.180;2022-12-07T16:36:23;5.20;1.00
37956;DHT22;23776;51.592;7.180;2022-12-07T16:38:50;5.20;1.00
37956;DHT22;23776;51.592;7.180;2022-12-07T16:41:16;5.20;1.00
37956;DHT22;23776;51.592;7.180;2022-12-07T16:43:41;5.20;1.00
37956;DHT22;23776;51.592;7.180;2022-12-07T16:46:07;5.20;1.00
37956;DHT22;23776;51.592;7.180;2022-12-07T16:48:36;5.20;1.00
37956;DHT22;23776;51.592;7.180;2022-12-07T16:51:04;5.30;1.00
37956;DHT22;23776;51.592;7.180;2022-12-07T16:53:30;5.20;1.00
37956;DHT22;23776;51.592;7.180;2022-12-07T16:55:56;5.20;1.00
37956;DHT22;23776;51.592;7.180;2022-12-07T16:58:21;5.20;1.00
37956;DHT22;23776;51.592;7.180;2022-12-07T17:00:47;5.20;1.00
37956;DHT22;23776;51.592;7.180;2022-12-07T17:03:13;5.30;1.00
37956;DHT22;23776;51.592;7.180;2022-12-07T17:05:43;5.30;1.00
37956;DHT22;23776;51.592;7.180;2022-12-07T17:08:10;5.20;1.00
37956;DHT22;23776;51.592;7.180;2022-12-07T17:10:38;5.30;1.00
37956;DHT22;23776;51.592;7.180;2022-12-07T17:13:05;5.30;1.00
37956;DHT22;23776;51.592;7.180;2022-12-07T17:16:02;5.30;1.00
37956;DHT22;23776;51.592;7.180;2022-12-07T17:18:29;5.40;1.00
37956;DHT22;23776;51.592;7.180;2022-12-07T17:20:55;5.30;1.00
37956;DHT22;23776;51.592;7.180;2022-12-07T17:23:21;5.30;1.00
37956;DHT22;23776;51.592;7.180;2022-12-07T17:25:47;5.30;1.00
37956;DHT22;23776;51.592;7.180;2022-12-07T17:28:12;5.30;1.00
37956;DHT22;23776;51.592;7.180;2022-12-07T17:30:38;5.30;1.00
37956;DHT22;23776;51.592;7.180;2022-12-07T17:33:04;5.20;1.00
37956;DHT22;23776;51.592;7.180;2022-12-07T17:35:30;5.10;1.00
37956;DHT22;23776;51.592;7.180;2022-12-07T17:37:55;5.10;1.00
37956;DHT22;23776;51.592;7.180;2022-12-07T17:40:21;5.00;1.00
37956;DHT22;23776;51.592;7.180;2022-12-07T17:42:47;4.90;1.00
37956;DHT22;23776;51.592;7.180;2022-12-07T17:45:16;4.80;1.00
37956;DHT22;23776;51.592;7.180;2022-12-07T17:47:42;5.00;1.00
37956;DHT22;23776;51.592;7.180;2022-12-07T17:50:09;4.80;1.00
37956;DHT22;23776;51.592;7.180;2022-12-07T17:52:37;4.80;1.00
37956;DHT22;23776;51.592;7.180;2022-12-07T17:55:22;4.80;1.00
37956;DHT22;23776;51.592;7.180;2022-12-07T17:57:48;4.70;1.00
37956;DHT22;23776;51.592;7.180;2022-12-07T18:00:14;4.60;1.00
37956;DHT22;23776;51.592;7.180;2022-12-07T18:02:40;4.60;1.00
37956;DHT22;23776;51.592;7.180;2022-12-07T18:05:06;4.60;1.00
37956;DHT22;23776;51.592;7.180;2022-12-07T18:07:32;4.50;1.00